Time;durP1;ratioP1;P1;durP2;ratioP2;P2;SDS_P1;SDS_P2;PMS_P1;PMS_P2;Temp;Humidity;BMP_temperature;BMP_pressure;BME280_temperature;BME280_humidity;BME280_pressure;Samples;Min_cycle;Max_cycle;Signal;HPM_P1;HPM_P2
2022/06/23 00:00:07;;;;;;;;;;;;;;;17.68;100.00;95683.09;1019066;29;20357;-69
2022/06/23 00:00:39;;;;;;;;;;;;;;;17.68;100.00;95678.56;1018580;29;19914;-69
2022/06/23 00:01:13;;;;;;;;;;;;;;;17.70;100.00;95674.81;1018940;29;20403;-69
2022/06/23 00:01:51;;;;;;;;;;;;;;;17.68;100.00;95686.53;1019176;29;19915;-69
2022/06/23 00:02:25;;;;;;;;;;;;;;;17.70;100.00;95680.13;1018102;29;19963;-69
2022/06/23 00:02:56;;;;;;;;;;;;;;;17.69;100.00;95682.00;1022853;28;19953;-68
2022/06/23 00:03:26;;;;;;;;;;;;;;;17.70;100.00;95683.56;1026719;28;19911;-69
2022/06/23 00:03:57;;;;;;;;;;;;;;;17.70;100.00;95683.56;1026802;28;19906;-69
2022/06/23 00:04:29;;;;;;;;;;;;;;;17.70;100.00;95682.78;1022640;29;20005;-70
2022/06/23 00:05:01;;;;;;;;;;;;;;;17.70;100.00;95682.78;1026782;28;19910;-69
2022/06/23 00:05:38;;;;;;;;;;;;;;;17.70;100.00;95685.44;1023133;29;19911;-70
2022/06/23 00:06:16;;;;;;;;;;;;;;;17.70;100.00;95680.13;1027028;28;20381;-70
2022/06/23 00:06:47;;;;;;;;;;;;;;;17.71;100.00;95681.72;1026797;28;19921;-69
2022/06/23 00:07:24;;;;;;;;;;;;;;;17.71;100.00;95689.66;1020655;29;19965;-69
2022/06/23 00:07:57;;;;;;;;;;;;;;;17.70;100.00;95683.56;1026643;28;20009;-68
2022/06/23 00:08:27;;;;;;;;;;;;;;;17.72;100.00;95685.91;1019014;29;19942;-69
2022/06/23 00:08:57;;;;;;;;;;;;;;;17.71;100.00;95673.75;1026447;28;19911;-69
2022/06/23 00:09:34;;;;;;;;;;;;;;;17.71;100.00;95682.50;1026609;28;19974;-69
2022/06/23 00:10:15;;;;;;;;;;;;;;;17.71;100.00;95687.78;1018752;29;19923;-69
2022/06/23 00:10:48;;;;;;;;;;;;;;;17.70;100.00;95686.22;1022936;29;19918;-70
2022/06/23 00:11:20;;;;;;;;;;;;;;;17.71;100.00;95692.31;1030787;28;20470;-70
2022/06/23 00:11:50;;;;;;;;;;;;;;;17.70;100.00;95683.56;1022711;29;19965;-70
2022/06/23 00:12:22;;;;;;;;;;;;;;;17.71;100.00;95694.97;1033908;28;20314;-66
2022/06/23 00:12:53;;;;;;;;;;;;;;;17.70;100.00;95690.75;1022611;29;20117;-69
2022/06/23 00:13:33;;;;;;;;;;;;;;;17.67;100.00;95687.63;1018754;29;20407;-69
2022/06/23 00:14:12;;;;;;;;;;;;;;;17.68;100.00;95691.06;1022586;29;19954;-68
2022/06/23 00:14:42;;;;;;;;;;;;;;;17.67;100.00;95694.78;1018694;29;19915;-70
2022/06/23 00:15:13;;;;;;;;;;;;;;;17.66;100.00;95688.69;1014721;29;19952;-68
2022/06/23 00:15:43;;;;;;;;;;;;;;;17.65;100.00;95686.38;1023211;29;19934;-69
2022/06/23 00:16:14;;;;;;;;;;;;;;;17.65;100.00;95689.03;1023032;29;20020;-70
2022/06/23 00:16:44;;;;;;;;;;;;;;;17.65;100.00;95686.38;1018782;29;19925;-69
2022/06/23 00:17:20;;;;;;;;;;;;;;;17.63;100.00;95689.31;1023089;29;19918;-68
2022/06/23 00:18:16;;;;;;;;;;;;;;;17.62;100.00;95694.94;1022975;29;20348;-69
2022/06/23 00:18:46;;;;;;;;;;;;;;;17.61;100.00;95690.72;1013465;29;19926;-69
2022/06/23 00:19:17;;;;;;;;;;;;;;;17.59;100.00;95692.91;1022497;29;20584;-68
2022/06/23 00:19:47;;;;;;;;;;;;;;;17.60;100.00;95691.81;1030743;28;19929;-70
2022/06/23 00:20:43;;;;;;;;;;;;;;;17.56;100.00;95696.94;1026708;28;19940;-70
2022/06/23 00:21:15;;;;;;;;;;;;;;;17.56;100.00;95699.59;1018993;29;19925;-69
2022/06/23 00:21:49;;;;;;;;;;;;;;;17.57;100.00;95700.38;1019297;29;19928;-68
2022/06/23 00:22:20;;;;;;;;;;;;;;;17.56;100.00;95696.94;1022324;28;19914;-68
2022/06/23 00:22:51;;;;;;;;;;;;;;;17.56;100.00;95690.88;1027929;28;19926;-69
2022/06/23 00:23:26;;;;;;;;;;;;;;;17.55;100.00;95691.97;1023550;28;20403;-70
2022/06/23 00:23:59;;;;;;;;;;;;;;;17.54;100.00;95693.84;1027606;28;19958;-69
2022/06/23 00:24:29;;;;;;;;;;;;;;;17.54;100.00;95690.38;1023697;29;20345;-68
2022/06/23 00:25:00;;;;;;;;;;;;;;;17.54;100.00;95691.19;1027603;28;20051;-70
2022/06/23 00:25:34;;;;;;;;;;;;;;;17.54;100.00;95691.19;1024015;28;19926;-69
2022/06/23 00:26:07;;;;;;;;;;;;;;;17.50;100.00;95690.22;1031730;28;19910;-69
2022/06/23 00:26:37;;;;;;;;;;;;;;;17.53;100.00;95691.47;1027798;28;20459;-69
2022/06/23 00:27:13;;;;;;;;;;;;;;;17.54;100.00;95695.69;1023574;29;19966;-68
2022/06/23 00:27:44;;;;;;;;;;;;;;;17.52;100.00;95695.22;1021888;29;19914;-68
2022/06/23 00:28:24;;;;;;;;;;;;;;;17.52;100.00;95690.69;1019868;29;19922;-69
2022/06/23 00:29:00;;;;;;;;;;;;;;;17.50;100.00;95692.88;1019686;28;19925;-69
2022/06/23 00:29:31;;;;;;;;;;;;;;;17.48;100.00;95689.75;1023345;29;19918;-69
2022/06/23 00:30:22;;;;;;;;;;;;;;;17.48;100.00;95689.75;1015590;29;19950;-67
2022/06/23 00:30:53;;;;;;;;;;;;;;;17.47;100.00;95687.41;1023224;29;19917;-70
2022/06/23 00:31:25;;;;;;;;;;;;;;;17.47;100.00;95688.19;1019429;29;19921;-69
2022/06/23 00:31:57;;;;;;;;;;;;;;;17.45;100.00;95693.03;1023202;29;19923;-68
2022/06/23 00:32:28;;;;;;;;;;;;;;;17.45;100.00;95687.72;1026963;28;19921;-69
2022/06/23 00:33:04;;;;;;;;;;;;;;;17.44;100.00;95686.16;1023699;29;20725;-69
2022/06/23 00:33:41;;;;;;;;;;;;;;;17.43;100.00;95682.69;1027790;28;19949;-68
2022/06/23 00:34:31;;;;;;;;;;;;;;;17.43;100.00;95688.00;1027278;28;20458;-69
2022/06/23 00:35:04;;;;;;;;;;;;;;;17.43;100.00;95692.53;1023427;29;19915;-66
2022/06/23 00:35:34;;;;;;;;;;;;;;;17.42;100.00;95683.78;1023586;29;19914;-69
2022/06/23 00:36:30;;;;;;;;;;;;;;;17.42;100.00;95690.97;1019472;29;20400;-70
2022/06/23 00:37:02;;;;;;;;;;;;;;;17.39;100.00;95689.72;1016578;29;19933;-68
2022/06/23 00:37:32;;;;;;;;;;;;;;;17.39;100.00;95686.28;1019658;29;19919;-69
2022/06/23 00:38:02;;;;;;;;;;;;;;;17.40;100.00;95687.84;1023350;29;19911;-71
2022/06/23 00:38:38;;;;;;;;;;;;;;;17.40;100.00;95691.31;1023529;29;19914;-68
2022/06/23 00:39:26;;;;;;;;;;;;;;;17.42;100.00;95689.09;1019685;29;19911;-69
2022/06/23 00:39:57;;;;;;;;;;;;;;;17.42;100.00;95691.75;1019544;29;19991;-69
2022/06/23 00:40:27;;;;;;;;;;;;;;;17.41;100.00;95684.91;1019551;29;20014;-69
2022/06/23 00:40:58;;;;;;;;;;;;;;;17.41;100.00;95686.78;1027544;28;19914;-69
2022/06/23 00:41:33;;;;;;;;;;;;;;;17.41;100.00;95682.25;1027496;28;20345;-69
2022/06/23 00:42:05;;;;;;;;;;;;;;;17.40;100.00;95686.00;1022963;29;19969;-68
2022/06/23 00:42:40;;;;;;;;;;;;;;;17.39;100.00;95684.41;1019449;29;19911;-68
2022/06/23 00:43:10;;;;;;;;;;;;;;;17.39;100.00;95683.63;1023738;29;19918;-68
2022/06/23 00:43:42;;;;;;;;;;;;;;;17.38;100.00;95676.78;1031699;28;19958;-69
2022/06/23 00:44:18;;;;;;;;;;;;;;;17.37;100.00;95680.50;1027618;28;20299;-69
2022/06/23 00:44:49;;;;;;;;;;;;;;;17.37;100.00;95676.00;1019499;29;19910;-69
2022/06/23 00:45:20;;;;;;;;;;;;;;;17.37;100.00;95683.94;1015570;29;19915;-71
2022/06/23 00:46:05;;;;;;;;;;;;;;;17.36;100.00;95685.03;1023713;29;19965;-69
2022/06/23 00:46:43;;;;;;;;;;;;;;;17.35;100.00;95683.47;1019478;29;19950;-69
2022/06/23 00:47:18;;;;;;;;;;;;;;;17.36;100.00;95682.38;1015825;29;20216;-69
2022/06/23 00:47:59;;;;;;;;;;;;;;;17.36;100.00;95684.25;1019481;29;19915;-69
2022/06/23 00:48:31;;;;;;;;;;;;;;;17.36;100.00;95684.25;1019470;29;19926;-69
2022/06/23 00:49:07;;;;;;;;;;;;;;;17.34;100.00;95687.22;1015758;29;20289;-68
2022/06/23 00:49:55;;;;;;;;;;;;;;;17.35;100.00;95688.78;1019541;29;19918;-70
2022/06/23 00:50:32;;;;;;;;;;;;;;;17.32;100.00;95683.28;1023380;29;19966;-68
2022/06/23 00:51:05;;;;;;;;;;;;;;;17.33;100.00;95690.16;1019688;29;20325;-66
2022/06/23 00:51:55;;;;;;;;;;;;;;;17.34;100.00;95697.03;1023670;29;19954;-69
2022/06/23 00:52:28;;;;;;;;;;;;;;;17.34;100.00;95695.16;1022392;29;19914;-69
2022/06/23 00:53:11;;;;;;;;;;;;;;;17.34;100.00;95691.75;1019194;29;20702;-69
2022/06/23 00:53:48;;;;;;;;;;;;;;;17.33;100.00;95692.81;1023578;29;20373;-70
2022/06/23 00:54:28;;;;;;;;;;;;;;;17.33;100.00;95690.16;1023670;29;19915;-69
2022/06/23 00:54:59;;;;;;;;;;;;;;;17.32;100.00;95693.91;1019440;29;19918;-70
2022/06/23 00:55:29;;;;;;;;;;;;;;;17.32;100.00;95693.91;1027667;28;20327;-69
2022/06/23 00:56:02;;;;;;;;;;;;;;;17.33;100.00;95696.25;1019666;29;19922;-68
2022/06/23 00:56:39;;;;;;;;;;;;;;;17.31;100.00;95689.69;1023086;28;20154;-70
2022/06/23 00:57:09;;;;;;;;;;;;;;;17.33;100.00;95690.16;1015478;29;20361;-69
2022/06/23 00:57:47;;;;;;;;;;;;;;;17.34;100.00;95702.34;1019761;29;19918;-70
2022/06/23 00:58:20;;;;;;;;;;;;;;;17.35;100.00;95688.78;1022964;29;20407;-70
2022/06/23 00:59:04;;;;;;;;;;;;;;;17.35;100.00;95693.28;1027042;28;19922;-68
2022/06/23 00:59:36;;;;;;;;;;;;;;;17.35;100.00;95699.38;1024509;28;20377;-68
2022/06/23 01:00:07;;;;;;;;;;;;;;;17.36;100.00;95690.31;1019600;29;20388;-69
2022/06/23 01:00:38;;;;;;;;;;;;;;;17.36;100.00;95695.63;1019614;29;19994;-70
2022/06/23 01:01:20;;;;;;;;;;;;;;;17.35;100.00;95702.03;1019419;29;20324;-68
2022/06/23 01:01:56;;;;;;;;;;;;;;;17.37;100.00;95693.75;1023670;29;19999;-68
2022/06/23 01:02:33;;;;;;;;;;;;;;;17.37;100.00;95691.09;1022798;29;20372;-69
2022/06/23 01:03:04;;;;;;;;;;;;;;;17.37;100.00;95696.41;1019264;29;19914;-69
2022/06/23 01:03:36;;;;;;;;;;;;;;;17.37;100.00;95691.09;1023598;29;20802;-71
2022/06/23 01:04:07;;;;;;;;;;;;;;;17.36;100.00;95692.19;1019366;29;19915;-68
2022/06/23 01:04:43;;;;;;;;;;;;;;;17.36;100.00;95689.53;1019472;29;19958;-69
2022/06/23 01:05:18;;;;;;;;;;;;;;;17.36;100.00;95686.91;1015550;29;20593;-68
2022/06/23 01:05:50;;;;;;;;;;;;;;;17.37;100.00;95691.09;1025194;28;20580;-69
2022/06/23 01:06:38;;;;;;;;;;;;;;;17.36;100.00;95694.84;1023504;28;20036;-67
2022/06/23 01:07:27;;;;;;;;;;;;;;;17.38;100.00;95687.38;1029904;28;20347;-68
2022/06/23 01:08:05;;;;;;;;;;;;;;;17.38;100.00;95684.72;1028249;28;19914;-69
2022/06/23 01:08:49;;;;;;;;;;;;;;;17.37;100.00;95685.78;1023386;29;20392;-69
2022/06/23 01:09:20;;;;;;;;;;;;;;;17.37;100.00;95686.59;1027123;28;19925;-68
2022/06/23 01:09:56;;;;;;;;;;;;;;;17.36;100.00;95684.25;1025376;28;20320;-69
2022/06/23 01:10:26;;;;;;;;;;;;;;;17.36;100.00;95689.53;1023292;29;20312;-69
2022/06/23 01:10:59;;;;;;;;;;;;;;;17.34;100.00;95692.53;1023526;29;19911;-68
2022/06/23 01:11:30;;;;;;;;;;;;;;;17.36;100.00;95689.53;1027273;28;19911;-69
2022/06/23 01:12:02;;;;;;;;;;;;;;;17.37;100.00;95691.09;1018978;29;20385;-66
2022/06/23 01:12:38;;;;;;;;;;;;;;;17.36;100.00;95686.91;1026978;28;20457;-68
2022/06/23 01:13:23;;;;;;;;;;;;;;;17.36;100.00;95690.31;1027166;28;19917;-68
2022/06/23 01:14:13;;;;;;;;;;;;;;;17.37;100.00;95691.91;1023556;29;20547;-69
2022/06/23 01:14:55;;;;;;;;;;;;;;;17.37;100.00;95694.56;1024458;28;19910;-70
2022/06/23 01:15:35;;;;;;;;;;;;;;;17.37;100.00;95697.22;1027406;28;20490;-68
2022/06/23 01:16:11;;;;;;;;;;;;;;;17.36;100.00;95692.19;1023148;29;19910;-70
2022/06/23 01:16:46;;;;;;;;;;;;;;;17.36;100.00;95689.53;1027016;28;20296;-69
2022/06/23 01:17:16;;;;;;;;;;;;;;;17.36;100.00;95690.31;1027524;28;20295;-70
2022/06/23 01:18:07;;;;;;;;;;;;;;;17.37;100.00;95696.41;1027184;28;19922;-68
2022/06/23 01:18:52;;;;;;;;;;;;;;;17.37;100.00;95696.41;1027806;28;19913;-68
2022/06/23 01:19:40;;;;;;;;;;;;;;;17.35;100.00;95693.28;1020029;29;20451;-67
2022/06/23 01:20:12;;;;;;;;;;;;;;;17.36;100.00;95694.84;1023620;28;19911;-69
2022/06/23 01:20:45;;;;;;;;;;;;;;;17.36;100.00;95700.16;1021724;29;19911;-68
2022/06/23 01:21:15;;;;;;;;;;;;;;;17.35;100.00;95693.28;1019584;29;19994;-70
2022/06/23 01:21:47;;;;;;;;;;;;;;;17.34;100.00;95697.81;1019374;29;20340;-70
2022/06/23 01:22:21;;;;;;;;;;;;;;;17.34;100.00;95697.03;1027278;28;20493;-69
2022/06/23 01:22:53;;;;;;;;;;;;;;;17.33;100.00;95698.88;1023276;28;19907;-68
2022/06/23 01:23:31;;;;;;;;;;;;;;;17.34;100.00;95697.81;1027241;28;19910;-71
2022/06/23 01:24:08;;;;;;;;;;;;;;;17.33;100.00;95695.47;1027240;28;19914;-69
2022/06/23 01:24:39;;;;;;;;;;;;;;;17.34;100.00;95689.09;1023434;29;19910;-69
2022/06/23 01:25:15;;;;;;;;;;;;;;;17.33;100.00;95690.16;1023209;29;19907;-69
2022/06/23 01:25:54;;;;;;;;;;;;;;;17.32;100.00;95696.56;1023009;29;19914;-69
2022/06/23 01:26:34;;;;;;;;;;;;;;;17.31;100.00;95687.03;1023555;29;19910;-68
2022/06/23 01:27:16;;;;;;;;;;;;;;;17.31;100.00;95692.34;1019493;29;20003;-69
2022/06/23 01:27:55;;;;;;;;;;;;;;;17.32;100.00;95696.56;1011582;29;20052;-69
2022/06/23 01:28:29;;;;;;;;;;;;;;;17.31;100.00;95697.66;1019387;29;19915;-68
2022/06/23 01:29:04;;;;;;;;;;;;;;;17.30;100.00;95704.81;1023940;28;19919;-69
2022/06/23 01:29:37;;;;;;;;;;;;;;;17.31;100.00;95701.09;1023291;29;19911;-69
2022/06/23 01:30:09;;;;;;;;;;;;;;;17.30;100.00;95693.41;1027143;28;20380;-68
2022/06/23 01:30:43;;;;;;;;;;;;;;;17.29;100.00;95700.59;1022913;29;19915;-69
2022/06/23 01:31:21;;;;;;;;;;;;;;;17.31;100.00;95700.31;1019376;29;19953;-68
2022/06/23 01:31:53;;;;;;;;;;;;;;;17.31;100.00;95697.66;1023339;29;19937;-67
2022/06/23 01:32:25;;;;;;;;;;;;;;;17.29;100.00;95700.59;1026420;28;20056;-69
2022/06/23 01:33:13;;;;;;;;;;;;;;;17.28;100.00;95703.56;1019116;29;20362;-69
2022/06/23 01:33:45;;;;;;;;;;;;;;;17.29;100.00;95699.81;1018979;29;20421;-69
2022/06/23 01:34:21;;;;;;;;;;;;;;;17.28;100.00;95696.38;1026913;28;19914;-68
2022/06/23 01:34:55;;;;;;;;;;;;;;;17.29;100.00;95694.53;1023435;29;19994;-68
2022/06/23 01:35:27;;;;;;;;;;;;;;;17.29;100.00;95705.91;1023369;29;20357;-69
2022/06/23 01:35:57;;;;;;;;;;;;;;;17.30;100.00;95706.69;1023391;29;19919;-69
2022/06/23 01:36:40;;;;;;;;;;;;;;;17.30;100.00;95701.38;1027230;28;20178;-69
2022/06/23 01:37:13;;;;;;;;;;;;;;;17.30;100.00;95704.03;1027345;28;19953;-69
2022/06/23 01:37:45;;;;;;;;;;;;;;;17.30;100.00;95701.38;1023211;29;19966;-70
2022/06/23 01:38:38;;;;;;;;;;;;;;;17.31;100.00;95708.25;1019200;29;19918;-69
2022/06/23 01:39:17;;;;;;;;;;;;;;;17.32;100.00;95707.16;1003263;29;19926;-70
2022/06/23 01:39:47;;;;;;;;;;;;;;;17.32;100.00;95704.50;1011794;28;20275;-69
2022/06/23 01:40:21;;;;;;;;;;;;;;;17.31;100.00;95708.25;1023377;28;19968;-70
2022/06/23 01:40:53;;;;;;;;;;;;;;;17.29;100.00;95711.22;1019280;29;20400;-69
2022/06/23 01:41:34;;;;;;;;;;;;;;;17.30;100.00;95710.09;1019334;29;20513;-70
2022/06/23 01:42:22;;;;;;;;;;;;;;;17.30;100.00;95717.28;1022900;29;19966;-70
2022/06/23 01:42:55;;;;;;;;;;;;;;;17.31;100.00;95710.91;1015071;29;20242;-71
2022/06/23 01:43:29;;;;;;;;;;;;;;;17.32;100.00;95709.81;1023048;29;20331;-69
2022/06/23 01:44:21;;;;;;;;;;;;;;;17.31;100.00;95706.38;1027141;28;19922;-71
2022/06/23 01:45:02;;;;;;;;;;;;;;;17.29;100.00;95713.84;1027046;28;19922;-69
2022/06/23 01:45:38;;;;;;;;;;;;;;;17.27;100.00;95709.94;1019604;29;20405;-70
2022/06/23 01:46:10;;;;;;;;;;;;;;;17.27;100.00;95717.91;1019179;29;19922;-69
2022/06/23 01:46:41;;;;;;;;;;;;;;;17.28;100.00;95714.97;1015233;29;19940;-67
2022/06/23 01:47:16;;;;;;;;;;;;;;;17.27;100.00;95717.91;1027499;28;19958;-69
2022/06/23 01:47:58;;;;;;;;;;;;;;;17.25;100.00;95726.16;1019135;29;20119;-70
2022/06/23 01:49:19;;;;;;;;;;;;;;;17.27;100.00;95717.91;1027372;28;19952;-69
2022/06/23 01:49:50;;;;;;;;;;;;;;;17.25;100.00;95720.09;1027428;28;19906;-68
2022/06/23 01:50:23;;;;;;;;;;;;;;;17.23;100.00;95723.03;1027391;28;20411;-68
2022/06/23 01:50:53;;;;;;;;;;;;;;;17.23;100.00;95722.25;1027132;28;19924;-69
2022/06/23 01:51:33;;;;;;;;;;;;;;;17.25;100.00;95720.09;1019178;29;19923;-69
2022/06/23 01:52:17;;;;;;;;;;;;;;;17.26;100.00;95726.94;1022444;29;19914;-69
2022/06/23 01:52:50;;;;;;;;;;;;;;;17.26;100.00;95726.94;1023336;28;19922;-71
2022/06/23 01:53:23;;;;;;;;;;;;;;;17.24;100.00;95718.53;1023292;29;19918;-68
2022/06/23 01:53:54;;;;;;;;;;;;;;;17.23;100.00;95719.59;1027815;28;19914;-70
2022/06/23 01:54:25;;;;;;;;;;;;;;;17.23;100.00;95725.69;1022009;29;20329;-69
2022/06/23 01:54:57;;;;;;;;;;;;;;;17.24;100.00;95719.31;1023645;29;19954;-69
2022/06/23 01:55:29;;;;;;;;;;;;;;;17.26;100.00;95724.28;1019671;29;19926;-69
2022/06/23 01:56:03;;;;;;;;;;;;;;;17.25;100.00;95726.16;1023584;29;19918;-67
2022/06/23 01:56:42;;;;;;;;;;;;;;;17.26;100.00;95729.59;1030582;28;20622;-68
2022/06/23 01:57:28;;;;;;;;;;;;;;;17.27;100.00;95728.50;1027216;28;19925;-69
2022/06/23 01:58:01;;;;;;;;;;;;;;;17.25;100.00;95731.47;1023116;29;19910;-69
2022/06/23 01:58:47;;;;;;;;;;;;;;;17.27;100.00;95734.63;1031407;28;19913;-69
2022/06/23 01:59:26;;;;;;;;;;;;;;;17.27;100.00;95729.31;1023633;29;20332;-69
2022/06/23 02:00:09;;;;;;;;;;;;;;;17.29;100.00;95723.69;1023669;29;19925;-68
2022/06/23 02:00:40;;;;;;;;;;;;;;;17.29;100.00;95735.06;1021242;29;20315;-68
2022/06/23 02:01:13;;;;;;;;;;;;;;;17.29;100.00;95729.00;1023671;29;20102;-69
2022/06/23 02:02:02;;;;;;;;;;;;;;;17.29;100.00;95736.94;1019553;29;20474;-70
2022/06/23 02:02:34;;;;;;;;;;;;;;;17.27;100.00;95728.50;1023545;29;19918;-67
2022/06/23 02:03:10;;;;;;;;;;;;;;;17.29;100.00;95736.94;1023423;29;19941;-68
2022/06/23 02:03:40;;;;;;;;;;;;;;;17.31;100.00;95737.44;1021097;29;19914;-67
2022/06/23 02:04:14;;;;;;;;;;;;;;;17.33;100.00;95735.25;1031444;28;20364;-68
2022/06/23 02:04:49;;;;;;;;;;;;;;;17.33;100.00;95743.97;1027263;28;19925;-69
2022/06/23 02:05:20;;;;;;;;;;;;;;;17.30;100.00;95739.28;1023564;29;19919;-69
2022/06/23 02:05:58;;;;;;;;;;;;;;;17.27;100.00;95741.75;1027564;28;19914;-68
2022/06/23 02:06:30;;;;;;;;;;;;;;;17.28;100.00;95740.69;1023474;29;19918;-69
2022/06/23 02:07:06;;;;;;;;;;;;;;;17.28;100.00;95738.03;1023432;29;19924;-66
2022/06/23 02:07:42;;;;;;;;;;;;;;;17.30;100.00;95743.81;1015327;29;19923;-69
2022/06/23 02:08:12;;;;;;;;;;;;;;;17.29;100.00;95742.25;1022460;28;20055;-67
2022/06/23 02:08:51;;;;;;;;;;;;;;;17.27;100.00;95736.47;1019704;29;19926;-68
2022/06/23 02:09:23;;;;;;;;;;;;;;;17.27;100.00;95744.41;1023597;29;19926;-69
2022/06/23 02:09:54;;;;;;;;;;;;;;;17.28;100.00;95743.34;1023427;29;19911;-69
2022/06/23 02:10:28;;;;;;;;;;;;;;;17.27;100.00;95745.22;1023935;28;19946;-69
2022/06/23 02:10:59;;;;;;;;;;;;;;;17.27;100.00;95745.22;1023683;29;19906;-69
2022/06/23 02:11:43;;;;;;;;;;;;;;;17.30;100.00;95743.81;1031432;28;20367;-69
2022/06/23 02:12:32;;;;;;;;;;;;;;;17.30;100.00;95749.13;1022630;29;20058;-69
2022/06/23 02:13:04;;;;;;;;;;;;;;;17.30;100.00;95749.13;1019777;29;19911;-68
2022/06/23 02:13:34;;;;;;;;;;;;;;;17.32;100.00;95746.94;1027640;28;20339;-69
2022/06/23 02:14:16;;;;;;;;;;;;;;;17.33;100.00;95743.19;1023482;29;19949;-70
2022/06/23 02:14:49;;;;;;;;;;;;;;;17.33;100.00;95751.94;1023570;29;19962;-69
2022/06/23 02:15:23;;;;;;;;;;;;;;;17.35;100.00;95747.13;1019409;29;19914;-67
2022/06/23 02:16:05;;;;;;;;;;;;;;;17.36;100.00;95753.97;1019393;29;19911;-70
2022/06/23 02:16:39;;;;;;;;;;;;;;;17.32;100.00;95750.38;1027532;28;19914;-70
2022/06/23 02:17:18;;;;;;;;;;;;;;;17.35;100.00;95751.66;1023594;29;19910;-68
2022/06/23 02:17:50;;;;;;;;;;;;;;;17.38;100.00;95753.69;1019695;29;19911;-69
2022/06/23 02:18:32;;;;;;;;;;;;;;;17.39;100.00;95747.28;1023394;29;20009;-69
2022/06/23 02:19:20;;;;;;;;;;;;;;;17.40;100.00;95748.84;1015487;29;19994;-68
2022/06/23 02:19:54;;;;;;;;;;;;;;;17.39;100.00;95752.59;1023576;29;19907;-68
2022/06/23 02:20:30;;;;;;;;;;;;;;;17.41;100.00;95750.44;1022981;29;19925;-71
2022/06/23 02:21:19;;;;;;;;;;;;;;;17.42;100.00;95759.94;1027550;28;19906;-66
2022/06/23 02:21:59;;;;;;;;;;;;;;;17.45;100.00;95751.38;1019710;29;19910;-68
2022/06/23 02:22:31;;;;;;;;;;;;;;;17.43;100.00;95753.53;1025950;28;19922;-67
2022/06/23 02:23:06;;;;;;;;;;;;;;;17.42;100.00;95752.00;1027686;28;20342;-68
2022/06/23 02:23:38;;;;;;;;;;;;;;;17.44;100.00;95750.59;1019710;29;19907;-68
2022/06/23 02:24:16;;;;;;;;;;;;;;;17.42;100.00;95752.78;1027357;28;19914;-69
2022/06/23 02:24:47;;;;;;;;;;;;;;;17.38;100.00;95759.00;1023237;29;19910;-70
2022/06/23 02:25:21;;;;;;;;;;;;;;;17.40;100.00;95748.84;1019382;29;19910;-68
2022/06/23 02:25:54;;;;;;;;;;;;;;;17.39;100.00;95753.38;1027393;28;19906;-67
2022/06/23 02:26:33;;;;;;;;;;;;;;;17.38;100.00;95751.03;1027373;28;19961;-67
2022/06/23 02:27:13;;;;;;;;;;;;;;;17.40;100.00;95748.84;1019569;29;19918;-69
2022/06/23 02:27:44;;;;;;;;;;;;;;;17.41;100.00;95740.59;1024175;28;19914;-68
2022/06/23 02:28:33;;;;;;;;;;;;;;;17.42;100.00;95749.34;1023192;29;20371;-68
2022/06/23 02:29:11;;;;;;;;;;;;;;;17.44;100.00;95749.81;1026138;28;19910;-72
2022/06/23 02:29:58;;;;;;;;;;;;;;;17.42;100.00;95747.47;1023425;29;19975;-68
2022/06/23 02:30:30;;;;;;;;;;;;;;;17.43;100.00;95749.03;1023447;29;19954;-69
2022/06/23 02:31:05;;;;;;;;;;;;;;;17.43;100.00;95754.31;1027501;28;20017;-66
2022/06/23 02:31:39;;;;;;;;;;;;;;;17.44;100.00;95749.81;1023607;29;19914;-69
2022/06/23 02:32:16;;;;;;;;;;;;;;;17.45;100.00;95754.03;1022812;29;19918;-68
2022/06/23 02:32:46;;;;;;;;;;;;;;;17.47;100.00;95749.22;1026750;28;19918;-68
2022/06/23 02:33:34;;;;;;;;;;;;;;;17.47;100.00;95749.22;1027210;28;19914;-68
2022/06/23 02:34:06;;;;;;;;;;;;;;;17.48;100.00;95752.66;1027201;28;19917;-68
2022/06/23 02:34:39;;;;;;;;;;;;;;;17.48;100.00;95745.47;1023525;29;20395;-69
2022/06/23 02:35:28;;;;;;;;;;;;;;;17.48;100.00;95756.09;1023681;29;19914;-68
2022/06/23 02:36:07;;;;;;;;;;;;;;;17.42;100.00;95752.78;1021697;29;20335;-68
2022/06/23 02:36:53;;;;;;;;;;;;;;;17.43;100.00;95753.53;1031252;28;20034;-68
2022/06/23 02:37:43;;;;;;;;;;;;;;;17.41;100.00;95750.44;1027211;28;19941;-70
2022/06/23 02:38:32;;;;;;;;;;;;;;;17.45;100.00;95754.03;1028196;28;19949;-68
2022/06/23 02:39:07;;;;;;;;;;;;;;;17.47;100.00;95751.88;1024258;28;19915;-69
2022/06/23 02:39:47;;;;;;;;;;;;;;;17.47;100.00;95751.88;1023617;29;19966;-70
2022/06/23 02:40:20;;;;;;;;;;;;;;;17.45;100.00;95751.38;1031478;28;19917;-68
2022/06/23 02:41:10;;;;;;;;;;;;;;;17.43;100.00;95753.53;1023365;29;19980;-70
2022/06/23 02:42:01;;;;;;;;;;;;;;;17.41;100.00;95753.88;1023178;29;20320;-67
2022/06/23 02:42:35;;;;;;;;;;;;;;;17.42;100.00;95752.00;1026293;28;20403;-69
2022/06/23 02:43:06;;;;;;;;;;;;;;;17.42;100.00;95758.06;1019131;29;19970;-68
2022/06/23 02:43:37;;;;;;;;;;;;;;;17.42;100.00;95757.28;1027421;28;19914;-70
2022/06/23 02:44:07;;;;;;;;;;;;;;;17.43;100.00;95754.31;1027350;28;20376;-68
2022/06/23 02:44:45;;;;;;;;;;;;;;;17.40;100.00;95757.63;1027013;28;19970;-69
2022/06/23 02:45:31;;;;;;;;;;;;;;;17.41;100.00;95755.75;1023488;29;19919;-68
2022/06/23 02:46:14;;;;;;;;;;;;;;;17.41;100.00;95753.09;1031042;28;19959;-69
2022/06/23 02:47:23;;;;;;;;;;;;;;;17.44;100.00;95757.78;1022998;29;19945;-69
2022/06/23 02:48:04;;;;;;;;;;;;;;;17.43;100.00;95753.53;1013891;29;20315;-69
2022/06/23 02:48:53;;;;;;;;;;;;;;;17.45;100.00;95754.03;1019340;29;19918;-69
2022/06/23 02:49:53;;;;;;;;;;;;;;;17.44;100.00;95755.13;1014642;29;20434;-69
2022/06/23 02:50:42;;;;;;;;;;;;;;;17.36;100.00;95758.50;1011320;29;20023;-68
2022/06/23 02:51:25;;;;;;;;;;;;;;;17.38;100.00;95757.13;1013523;29;19908;-69
2022/06/23 02:52:02;;;;;;;;;;;;;;;17.40;100.00;95759.47;1007606;29;19912;-69
2022/06/23 02:52:32;;;;;;;;;;;;;;;17.42;100.00;95757.28;1011349;29;19908;-67
2022/06/23 02:53:08;;;;;;;;;;;;;;;17.40;100.00;95760.28;1018832;29;20124;-70
2022/06/23 02:53:57;;;;;;;;;;;;;;;17.42;100.00;95762.59;1020272;28;19922;-71
2022/06/23 02:54:43;;;;;;;;;;;;;;;17.38;100.00;95761.66;1022904;29;19906;-68
2022/06/23 02:55:27;;;;;;;;;;;;;;;17.35;100.00;95765.69;1023603;29;19910;-69
2022/06/23 02:56:29;;;;;;;;;;;;;;;17.34;100.00;95763.34;1023447;29;19917;-69
2022/06/23 02:57:00;;;;;;;;;;;;;;;17.27;100.00;95765.63;1003677;29;20363;-69
2022/06/23 02:57:42;;;;;;;;;;;;;;;17.28;100.00;95762.69;1003759;29;20073;-69
2022/06/23 02:58:51;;;;;;;;;;;;;;;17.31;100.00;95766.63;1022367;28;19969;-70
2022/06/23 02:59:33;;;;;;;;;;;;;;;17.30;100.00;95765.81;1022986;29;19981;-68
2022/06/23 03:00:14;;;;;;;;;;;;;;;17.26;100.00;95769.38;1013403;29;19911;-67
2022/06/23 03:00:54;;;;;;;;;;;;;;;17.29;100.00;95769.56;1005227;29;19912;-70
2022/06/23 03:01:33;;;;;;;;;;;;;;;17.32;100.00;95773.47;1007986;29;19918;-69
2022/06/23 03:02:22;;;;;;;;;;;;;;;17.28;100.00;95769.88;1009518;29;20460;-68
2022/06/23 03:02:52;;;;;;;;;;;;;;;17.29;100.00;95774.84;1015109;29;19907;-69
2022/06/23 03:03:30;;;;;;;;;;;;;;;17.28;100.00;95765.34;1010577;29;19918;-67
2022/06/23 03:04:13;;;;;;;;;;;;;;;17.27;100.00;95770.94;1006825;29;19908;-69
2022/06/23 03:05:09;;;;;;;;;;;;;;;17.25;100.00;95768.59;1007027;29;19952;-69
2022/06/23 03:05:46;;;;;;;;;;;;;;;17.20;100.00;95766.88;1008788;29;19919;-67
2022/06/23 03:06:28;;;;;;;;;;;;;;;17.20;100.00;95766.88;1012763;28;20328;-69
2022/06/23 03:07:01;;;;;;;;;;;;;;;17.18;100.00;95769.03;1023238;29;19949;-69
2022/06/23 03:07:42;;;;;;;;;;;;;;;17.14;100.00;95768.09;1018630;29;19943;-70
2022/06/23 03:08:18;;;;;;;;;;;;;;;17.16;100.00;95767.75;1018480;29;19974;-67
2022/06/23 03:08:57;;;;;;;;;;;;;;;17.14;100.00;95768.09;1026797;28;19918;-69
2022/06/23 03:09:28;;;;;;;;;;;;;;;17.12;100.00;95770.25;1026682;28;20041;-69
2022/06/23 03:10:19;;;;;;;;;;;;;;;17.12;100.00;95770.25;1024552;28;20389;-68